Terminal Aerodrome Forecast
Issued by NWS Corpus Christi, TX

Home | Current Version | Previous Version | Text Only | Print | Product List | Glossary On
Versions: 1 2 3 4 5 6 7 8 9 10 11 12 13 14 15
000
FTUS44 KCRP 211700
TAFVCT
TAF
KVCT 211728Z 2118/2218 15016G22KT 6SM -SHRA BR SCT015 BKN025
      TEMPO 2118/2120 4SM SHRA BR OVC015
     FM212100 15018G24KT P6SM VCSH SCT025 OVC040
     FM220200 13011KT P6SM BKN025 OVC040
     FM220600 13010KT P6SM VCSH OVC015
     FM221500 14015KT 5SM -SHRA BKN020=

USA.gov is the U.S. government's official web portal to all federal, state and local government web resources and services.